Time;durP1;ratioP1;P1;durP2;ratioP2;P2;SDS_P1;SDS_P2;PMS_P1;PMS_P2;Temp;Humidity;BMP_temperature;BMP_pressure;BME280_temperature;BME280_humidity;BME280_pressure;Samples;Min_cycle;Max_cycle;Signal;HPM_P1;HPM_P2
2020/12/15 00:01:52;;;;;;;6.77;5.90;;;10.30;35.60;;;;;;5037099;28;20450;-67
2020/12/15 00:04:18;;;;;;;6.30;5.70;;;10.30;34.80;;;;;;5035382;28;20230;-67
2020/12/15 00:06:44;;;;;;;6.60;6.03;;;10.20;34.70;;;;;;5037168;28;20446;-67
2020/12/15 00:09:09;;;;;;;6.77;6.17;;;10.30;35.20;;;;;;5035061;28;20230;-67
2020/12/15 00:11:35;;;;;;;5.73;5.33;;;10.30;34.70;;;;;;5036981;28;20705;-67
2020/12/15 00:14:00;;;;;;;6.00;5.50;;;10.20;34.60;;;;;;5034892;28;20224;-67
2020/12/15 00:16:26;;;;;;;5.83;5.33;;;10.30;34.90;;;;;;5035585;28;20231;-67
2020/12/15 00:18:51;;;;;;;6.20;5.50;;;10.40;34.20;;;;;;5034798;28;20216;-68
2020/12/15 00:21:21;;;;;;;5.97;5.47;;;10.30;34.30;;;;;;5036802;28;20220;-67
2020/12/15 00:23:52;;;;;;;5.60;5.10;;;10.30;34.40;;;;;;5034392;28;20226;-67
2020/12/15 00:26:19;;;;;;;5.90;5.40;;;10.40;34.20;;;;;;5036565;28;20529;-68
2020/12/15 00:28:45;;;;;;;5.67;5.27;;;10.40;34.90;;;;;;5034783;28;20504;-68
2020/12/15 00:31:11;;;;;;;5.93;5.43;;;10.40;33.20;;;;;;5036419;28;20842;-68
2020/12/15 00:33:36;;;;;;;4.63;4.33;;;10.50;34.00;;;;;;5034480;28;20477;-68
2020/12/15 00:36:02;;;;;;;5.70;5.20;;;10.50;33.90;;;;;;5036334;28;20464;-68
2020/12/15 00:38:28;;;;;;;7.73;4.93;;;10.40;33.70;;;;;;5045582;28;20455;-66
2020/12/15 00:40:53;;;;;;;6.23;5.67;;;10.50;33.90;;;;;;5052169;28;20442;-66
2020/12/15 00:43:19;;;;;;;5.47;4.97;;;10.50;32.80;;;;;;5051431;28;20325;-66
2020/12/15 00:45:45;;;;;;;5.87;5.27;;;10.40;32.20;;;;;;5051414;28;20222;-67
2020/12/15 00:48:11;;;;;;;5.87;5.37;;;10.40;32.10;;;;;;5051365;28;20180;-67
2020/12/15 00:50:37;;;;;;;5.50;5.00;;;10.20;32.40;;;;;;5051476;28;20410;-65
2020/12/15 00:53:03;;;;;;;6.50;5.50;;;10.30;32.40;;;;;;5051142;28;20984;-66
2020/12/15 00:55:28;;;;;;;5.13;4.70;;;10.20;32.10;;;;;;5051836;28;20426;-66
2020/12/15 00:57:53;;;;;;;4.83;4.33;;;10.20;31.80;;;;;;5052603;28;20254;-66
2020/12/15 01:00:19;;;;;;;4.87;4.47;;;9.90;32.30;;;;;;5052877;28;20168;-66
2020/12/15 01:02:45;;;;;;;5.23;4.83;;;10.00;32.00;;;;;;5052760;28;20278;-66
2020/12/15 01:05:10;;;;;;;4.80;4.40;;;10.10;31.60;;;;;;5052658;28;20172;-66
2020/12/15 01:07:36;;;;;;;4.70;4.40;;;9.90;32.40;;;;;;5051578;28;20184;-66
2020/12/15 01:10:03;;;;;;;5.93;5.33;;;9.90;32.70;;;;;;5052642;28;20650;-66
2020/12/15 01:12:28;;;;;;;5.37;4.87;;;9.90;32.50;;;;;;5052827;28;20203;-67
2020/12/15 01:14:54;;;;;;;5.73;4.67;;;10.00;31.50;;;;;;5052700;28;20411;-66
2020/12/15 01:17:19;;;;;;;5.43;4.90;;;10.00;31.50;;;;;;5052385;28;20667;-66
2020/12/15 01:19:45;;;;;;;5.20;4.70;;;10.10;31.60;;;;;;5052834;28;20294;-67
2020/12/15 01:22:11;;;;;;;5.03;4.73;;;10.20;31.70;;;;;;5052507;28;20203;-67
2020/12/15 01:24:36;;;;;;;5.40;5.00;;;10.30;31.80;;;;;;5052592;28;20176;-66
2020/12/15 01:27:02;;;;;;;4.83;4.43;;;10.20;31.70;;;;;;5052414;28;20484;-66
2020/12/15 01:29:27;;;;;;;4.90;4.40;;;10.30;31.50;;;;;;5052312;28;20168;-67
2020/12/15 01:31:53;;;;;;;5.67;5.10;;;10.40;31.80;;;;;;5052257;28;20263;-66
2020/12/15 01:34:19;;;;;;;4.60;4.00;;;10.40;31.80;;;;;;5052255;28;20172;-66
2020/12/15 01:36:45;;;;;;;4.90;4.50;;;10.40;29.70;;;;;;5052080;28;20216;-67
2020/12/15 01:39:11;;;;;;;4.30;4.00;;;10.30;29.80;;;;;;5051863;28;20445;-67
2020/12/15 01:41:36;;;;;;;4.80;4.27;;;10.40;30.50;;;;;;5052108;28;20172;-66
2020/12/15 01:44:04;;;;;;;5.50;4.97;;;10.40;29.60;;;;;;5052036;28;20192;-67
2020/12/15 01:46:30;;;;;;;4.63;4.23;;;10.40;29.70;;;;;;5052156;28;20172;-67
2020/12/15 01:48:57;;;;;;;4.33;4.03;;;10.50;31.20;;;;;;5051903;28;20929;-68
2020/12/15 01:51:28;;;;;;;5.27;4.87;;;10.50;31.40;;;;;;5051820;28;20829;-66
2020/12/15 01:53:54;;;;;;;5.10;4.60;;;10.50;30.10;;;;;;5051703;28;20429;-67
2020/12/15 01:56:20;;;;;;;4.50;4.20;;;10.50;30.10;;;;;;5051841;28;20453;-68
2020/12/15 01:58:51;;;;;;;4.80;4.50;;;10.60;30.60;;;;;;5051626;28;20460;-68
2020/12/15 02:01:17;;;;;;;4.93;4.43;;;10.50;30.30;;;;;;5051780;28;20465;-65
2020/12/15 02:03:42;;;;;;;4.10;3.80;;;10.40;30.00;;;;;;5051673;28;20434;-66
2020/12/15 02:06:08;;;;;;;4.77;4.37;;;10.30;29.70;;;;;;5051571;28;20164;-66
2020/12/15 02:08:33;;;;;;;4.97;4.57;;;10.40;30.00;;;;;;5051404;28;20179;-66
2020/12/15 02:10:59;;;;;;;4.70;4.30;;;10.40;29.30;;;;;;5051525;28;20176;-66
2020/12/15 02:13:24;;;;;;;4.07;3.77;;;10.30;29.50;;;;;;5051421;28;20671;-67
2020/12/15 02:15:50;;;;;;;4.50;4.10;;;10.20;29.40;;;;;;5051460;28;20558;-66
2020/12/15 02:18:16;;;;;;;4.50;4.10;;;10.20;29.70;;;;;;5050813;28;20216;-66
2020/12/15 02:20:41;;;;;;;4.80;4.47;;;10.30;31.10;;;;;;5051220;28;20650;-66
2020/12/15 02:23:07;;;;;;;4.77;4.30;;;10.40;30.80;;;;;;5051192;28;20203;-67
2020/12/15 02:25:32;;;;;;;4.57;4.17;;;10.50;30.60;;;;;;5051298;28;20176;-67
2020/12/15 02:27:58;;;;;;;4.43;4.13;;;10.40;30.90;;;;;;5051095;28;20198;-66
2020/12/15 02:30:24;;;;;;;4.10;3.80;;;10.40;30.00;;;;;;5051187;28;20168;-66
2020/12/15 02:32:50;;;;;;;5.30;4.90;;;10.30;29.50;;;;;;5051162;28;20210;-66
2020/12/15 02:35:15;;;;;;;4.50;4.10;;;10.40;29.40;;;;;;5051075;28;20974;-66
2020/12/15 02:37:41;;;;;;;4.07;3.77;;;10.30;29.60;;;;;;5050822;28;20195;-66
2020/12/15 02:40:07;;;;;;;4.80;4.30;;;10.30;29.70;;;;;;5051054;28;20179;-66
2020/12/15 02:42:33;;;;;;;5.17;4.77;;;10.30;30.60;;;;;;5051138;28;20682;-66
2020/12/15 02:44:59;;;;;;;4.83;4.30;;;10.30;30.00;;;;;;5050942;28;20214;-66
2020/12/15 02:47:25;;;;;;;5.17;4.73;;;10.40;30.30;;;;;;5050740;28;20406;-66
2020/12/15 02:49:51;;;;;;;6.10;5.60;;;10.50;30.30;;;;;;5050938;28;20415;-66
2020/12/15 02:52:19;;;;;;;6.97;6.37;;;10.50;32.10;;;;;;5050859;28;20517;-67
2020/12/15 02:54:48;;;;;;;8.30;7.60;;;10.50;32.40;;;;;;5051017;28;20430;-66
2020/12/15 02:57:14;;;;;;;6.60;6.10;;;10.40;32.80;;;;;;5050808;28;20545;-66
2020/12/15 02:59:41;;;;;;;9.80;7.90;;;10.20;33.50;;;;;;5050875;28;20410;-65
2020/12/15 03:02:06;;;;;;;7.50;6.90;;;10.30;33.70;;;;;;5050815;28;20430;-66
2020/12/15 03:04:32;;;;;;;7.90;7.20;;;10.30;34.40;;;;;;5050886;28;20936;-66
2020/12/15 03:06:57;;;;;;;9.53;8.60;;;10.30;34.40;;;;;;5050859;28;20800;-67
2020/12/15 03:09:23;;;;;;;8.70;7.80;;;10.20;34.60;;;;;;5050852;28;20171;-66
2020/12/15 03:11:48;;;;;;;8.23;7.63;;;10.30;34.70;;;;;;5050945;28;20647;-66
2020/12/15 03:14:14;;;;;;;10.10;7.60;;;10.30;34.60;;;;;;5050956;28;20187;-66
2020/12/15 03:16:39;;;;;;;9.27;7.20;;;10.30;34.50;;;;;;5050637;28;20278;-66
2020/12/15 03:19:05;;;;;;;11.10;8.60;;;10.00;35.60;;;;;;5050447;28;20160;-65
2020/12/15 03:21:35;;;;;;;9.80;9.00;;;9.30;38.30;;;;;;5050597;28;20175;-67
2020/12/15 03:24:02;;;;;;;12.90;8.03;;;9.50;38.50;;;;;;5050540;28;20215;-66
2020/12/15 03:26:28;;;;;;;8.87;7.93;;;9.60;38.50;;;;;;5055556;28;20423;-66
2020/12/15 03:28:54;;;;;;;8.47;7.63;;;9.60;38.10;;;;;;5070396;28;20488;-66
2020/12/15 03:31:19;;;;;;;9.40;8.50;;;9.60;38.60;;;;;;5074582;28;20204;-66
2020/12/15 03:33:46;;;;;;;8.60;7.80;;;9.70;38.70;;;;;;5074455;28;20230;-67
2020/12/15 03:36:11;;;;;;;7.90;7.20;;;9.90;38.00;;;;;;5074365;28;20182;-66
2020/12/15 03:38:37;;;;;;;8.93;8.17;;;9.90;37.70;;;;;;5074188;28;20786;-65
2020/12/15 03:41:02;;;;;;;9.00;8.20;;;9.70;38.00;;;;;;5074444;28;20182;-66
2020/12/15 03:43:28;;;;;;;8.33;7.67;;;9.80;38.20;;;;;;5074196;28;20195;-65
2020/12/15 03:45:53;;;;;;;8.23;7.40;;;9.80;37.80;;;;;;5074285;28;20190;-66
2020/12/15 03:48:19;;;;;;;7.27;6.57;;;9.90;38.10;;;;;;5074020;28;20213;-66
2020/12/15 03:50:44;;;;;;;8.73;7.77;;;9.90;38.40;;;;;;5074149;28;20191;-66
2020/12/15 03:53:10;;;;;;;7.57;6.90;;;9.90;37.90;;;;;;5074077;28;20237;-67
2020/12/15 03:55:35;;;;;;;7.23;6.63;;;10.00;37.00;;;;;;5074090;28;20184;-66
2020/12/15 03:58:01;;;;;;;6.90;6.20;;;10.00;37.00;;;;;;5073719;28;20211;-67
2020/12/15 04:00:26;;;;;;;8.00;7.20;;;10.00;37.20;;;;;;5073982;28;20203;-67
2020/12/15 04:02:52;;;;;;;6.40;5.80;;;10.10;37.40;;;;;;5073910;28;20194;-67
2020/12/15 04:05:17;;;;;;;6.40;5.80;;;10.00;36.70;;;;;;5073761;28;20175;-67
2020/12/15 04:07:43;;;;;;;5.13;4.73;;;9.90;38.50;;;;;;5073823;28;20179;-68
2020/12/15 04:10:10;;;;;;;7.00;5.03;;;10.10;35.40;;;;;;5073783;28;20175;-67
2020/12/15 04:12:36;;;;;;;5.33;4.83;;;10.20;36.20;;;;;;5073689;28;20428;-67
2020/12/15 04:15:05;;;;;;;3.97;3.67;;;10.30;34.60;;;;;;5073679;28;20771;-66
2020/12/15 04:17:36;;;;;;;4.90;4.50;;;10.20;31.70;;;;;;5073387;28;20817;-67
2020/12/15 04:20:03;;;;;;;5.00;4.40;;;10.00;32.60;;;;;;5073628;28;20410;-67
2020/12/15 04:22:28;;;;;;;5.37;4.87;;;10.10;32.80;;;;;;5073332;28;20542;-67
2020/12/15 04:24:54;;;;;;;7.33;6.63;;;10.30;35.00;;;;;;5073608;28;20445;-66
2020/12/15 04:27:19;;;;;;;5.50;4.53;;;10.30;35.50;;;;;;5073422;28;20544;-67
2020/12/15 04:29:45;;;;;;;5.30;4.80;;;10.40;33.30;;;;;;5073670;28;20179;-67
2020/12/15 04:32:10;;;;;;;4.90;4.50;;;10.30;33.30;;;;;;5073651;28;20195;-67
2020/12/15 04:34:36;;;;;;;5.70;5.20;;;10.30;32.50;;;;;;5073457;28;20175;-67
2020/12/15 04:37:01;;;;;;;4.67;4.27;;;10.20;32.10;;;;;;5073235;28;20270;-67
2020/12/15 04:39:27;;;;;;;5.80;4.87;;;10.10;31.90;;;;;;5073425;28;20163;-67
2020/12/15 04:41:53;;;;;;;4.83;4.43;;;10.20;32.10;;;;;;5073038;28;20241;-66
2020/12/15 04:44:19;;;;;;;5.53;4.50;;;10.30;32.00;;;;;;5073164;28;20171;-67
2020/12/15 04:47:17;;;;;;;5.50;5.00;;;10.40;31.80;;;;;;5073142;28;20194;-67
2020/12/15 04:50:03;;;;;;;5.80;5.33;;;10.30;31.70;;;;;;5073226;28;20412;-66
2020/12/15 04:52:56;;;;;;;5.20;4.80;;;10.40;31.80;;;;;;5073125;28;20456;-66
2020/12/15 04:55:23;;;;;;;4.30;3.90;;;10.30;31.70;;;;;;5073220;28;20773;-67
2020/12/15 04:57:49;;;;;;;5.23;4.80;;;10.40;30.70;;;;;;5072684;28;20449;-67
2020/12/15 05:00:16;;;;;;;4.00;3.70;;;10.20;30.60;;;;;;5072889;28;20462;-67
2020/12/15 05:02:44;;;;;;;5.13;3.77;;;10.20;30.50;;;;;;5072746;28;20183;-67
2020/12/15 05:05:10;;;;;;;6.00;3.70;;;10.10;30.80;;;;;;5072775;28;20503;-66
2020/12/15 05:07:41;;;;;;;4.60;4.20;;;10.10;31.30;;;;;;5072495;28;20495;-67
2020/12/15 05:10:08;;;;;;;4.97;4.47;;;10.20;31.40;;;;;;5072549;28;21104;-66
2020/12/15 05:12:34;;;;;;;5.30;4.80;;;10.30;31.20;;;;;;5072567;28;20436;-67
2020/12/15 05:15:01;;;;;;;4.73;4.40;;;10.40;31.80;;;;;;5072676;28;21032;-66
2020/12/15 05:17:32;;;;;;;4.70;4.30;;;10.60;31.10;;;;;;5072290;28;20492;-67
2020/12/15 05:20:00;;;;;;;5.03;4.53;;;10.70;31.00;;;;;;5072503;28;20819;-66
2020/12/15 05:22:44;;;;;;;5.73;5.20;;;10.70;31.80;;;;;;5072137;28;20450;-66
2020/12/15 05:25:21;;;;;;;6.43;5.90;;;10.70;31.80;;;;;;5072404;28;20459;-67
2020/12/15 05:27:46;;;;;;;6.73;6.17;;;10.50;33.20;;;;;;5072154;28;20431;-66
2020/12/15 05:30:12;;;;;;;7.40;6.80;;;10.70;33.20;;;;;;5067940;28;20409;-68
2020/12/15 05:32:51;;;;;;;8.07;7.23;;;10.70;33.20;;;;;;5068960;28;20241;-67
2020/12/15 05:35:27;;;;;;;9.17;8.17;;;10.70;33.60;;;;;;5050710;28;20697;-68
2020/12/15 05:37:57;;;;;;;12.23;7.63;;;10.50;34.20;;;;;;5051576;28;20507;-68
2020/12/15 05:40:23;;;;;;;6.77;6.13;;;10.60;34.10;;;;;;5051839;28;20919;-66
2020/12/15 05:42:53;;;;;;;8.57;7.57;;;10.60;34.20;;;;;;5051547;28;20505;-66
2020/12/15 05:45:21;;;;;;;10.20;8.27;;;10.70;33.90;;;;;;5052007;28;20191;-66
2020/12/15 05:47:58;;;;;;;8.07;7.33;;;10.60;33.90;;;;;;5051402;28;20921;-66
2020/12/15 05:50:25;;;;;;;7.93;7.10;;;10.70;34.00;;;;;;5051708;28;20413;-67
2020/12/15 05:53:02;;;;;;;8.30;7.53;;;10.80;33.70;;;;;;5050923;28;20426;-64
2020/12/15 05:55:28;;;;;;;11.00;9.03;;;10.80;33.70;;;;;;5051537;28;20916;-66
2020/12/15 05:57:55;;;;;;;9.17;8.20;;;10.70;34.40;;;;;;5051005;28;20520;-66
2020/12/15 06:00:23;;;;;;;7.80;7.10;;;10.70;34.30;;;;;;5051525;28;20979;-65
2020/12/15 06:03:00;;;;;;;12.00;8.37;;;10.60;34.20;;;;;;5051391;28;20422;-65
2020/12/15 06:05:31;;;;;;;8.60;7.50;;;10.60;34.80;;;;;;5051121;28;20406;-66
2020/12/15 06:07:58;;;;;;;8.40;7.60;;;10.60;34.60;;;;;;5051015;28;20450;-64
2020/12/15 06:10:25;;;;;;;9.67;7.67;;;10.50;34.50;;;;;;5051290;28;20968;-65
2020/12/15 06:12:52;;;;;;;12.17;8.60;;;10.60;35.00;;;;;;5050753;28;20430;-65
2020/12/15 06:15:18;;;;;;;9.37;8.20;;;10.70;35.10;;;;;;5051153;28;20406;-64
2020/12/15 06:17:56;;;;;;;8.57;7.77;;;10.70;34.50;;;;;;5050942;28;20460;-65
2020/12/15 06:20:22;;;;;;;12.17;8.80;;;10.60;34.70;;;;;;5050715;28;20414;-66
2020/12/15 06:22:52;;;;;;;9.13;8.33;;;10.70;35.00;;;;;;5050686;28;20438;-66
2020/12/15 06:25:32;;;;;;;11.83;10.63;;;10.80;34.30;;;;;;5050974;28;20464;-64
2020/12/15 06:28:01;;;;;;;11.13;10.03;;;10.80;34.20;;;;;;5050363;28;20450;-65
2020/12/15 06:30:31;;;;;;;10.53;9.60;;;10.80;34.20;;;;;;5050821;28;20408;-66
2020/12/15 06:33:04;;;;;;;10.10;9.20;;;10.90;34.50;;;;;;5050593;28;20468;-65
2020/12/15 06:35:30;;;;;;;9.33;8.43;;;10.70;34.10;;;;;;5050570;28;20414;-65
2020/12/15 06:37:56;;;;;;;7.97;7.27;;;10.70;34.30;;;;;;5050462;28;20580;-65
2020/12/15 06:40:22;;;;;;;8.83;7.93;;;10.60;34.00;;;;;;5050631;28;20433;-65
2020/12/15 06:42:49;;;;;;;15.13;13.23;;;10.60;34.30;;;;;;5050306;28;20421;-64
2020/12/15 06:45:15;;;;;;;10.80;9.70;;;10.50;34.60;;;;;;5050585;28;20424;-65
2020/12/15 06:47:40;;;;;;;9.47;8.57;;;10.60;34.90;;;;;;5050339;28;20398;-65
2020/12/15 06:50:14;;;;;;;9.20;8.50;;;10.70;34.70;;;;;;5050392;28;20262;-65
2020/12/15 06:52:40;;;;;;;9.50;8.50;;;10.70;34.80;;;;;;5050417;28;20199;-66
2020/12/15 06:55:06;;;;;;;8.30;7.60;;;10.80;34.80;;;;;;5050532;28;20417;-65
2020/12/15 06:57:37;;;;;;;9.00;8.13;;;10.90;35.00;;;;;;5049976;28;20279;-67
2020/12/15 07:00:11;;;;;;;10.40;9.40;;;11.70;50.30;;;;;;5050407;28;20403;-66
2020/12/15 07:02:38;;;;;;;8.37;7.57;;;12.90;53.00;;;;;;5049569;28;20982;-67
2020/12/15 07:05:17;;;;;;;10.03;8.70;;;13.70;38.90;;;;;;5049099;28;20402;-67
2020/12/15 07:07:49;;;;;;;7.63;6.87;;;13.40;33.90;;;;;;5050338;28;20488;-67
2020/12/15 07:10:15;;;;;;;6.73;6.13;;;13.00;32.50;;;;;;5050467;28;20441;-67
2020/12/15 07:12:41;;;;;;;7.67;6.80;;;12.60;31.00;;;;;;5050079;28;20425;-67
2020/12/15 07:15:10;;;;;;;11.27;7.57;;;13.30;37.70;;;;;;5050681;28;20407;-65
2020/12/15 07:17:36;;;;;;;12.47;8.27;;;13.20;41.30;;;;;;5050251;28;20465;-67
2020/12/15 07:20:02;;;;;;;12.20;9.17;;;12.80;29.90;;;;;;5050296;28;20436;-67
2020/12/15 07:22:28;;;;;;;17.90;8.80;;;12.40;31.30;;;;;;5050398;28;20652;-68
2020/12/15 07:24:53;;;;;;;13.87;8.60;;;12.20;32.10;;;;;;5050543;28;20489;-67
2020/12/15 07:27:20;;;;;;;9.53;8.33;;;11.90;32.80;;;;;;5049829;28;20186;-66
2020/12/15 07:29:53;;;;;;;8.73;7.93;;;11.80;33.10;;;;;;5050205;28;20283;-67
2020/12/15 07:32:19;;;;;;;8.97;8.07;;;11.70;33.00;;;;;;5050025;28;20560;-65
2020/12/15 07:34:44;;;;;;;8.53;7.23;;;11.60;33.20;;;;;;5049979;28;20445;-64
2020/12/15 07:37:17;;;;;;;10.70;8.40;;;11.50;32.80;;;;;;5031790;28;20200;-67
2020/12/15 07:39:43;;;;;;;8.73;7.97;;;11.50;33.50;;;;;;5029911;28;20181;-67
2020/12/15 07:42:09;;;;;;;9.00;7.80;;;11.40;33.00;;;;;;5030123;28;20442;-67
2020/12/15 07:44:34;;;;;;;8.63;7.73;;;11.40;32.80;;;;;;5040805;28;20411;-67
2020/12/15 07:47:00;;;;;;;10.97;7.87;;;11.30;33.10;;;;;;5049929;28;20534;-67
2020/12/15 07:49:26;;;;;;;11.90;8.77;;;11.30;33.40;;;;;;5050232;28;20199;-67
2020/12/15 07:51:52;;;;;;;9.27;7.80;;;11.30;33.40;;;;;;5050057;28;20691;-68
2020/12/15 07:54:17;;;;;;;12.20;8.60;;;11.30;33.90;;;;;;5050144;28;20407;-67
2020/12/15 07:56:47;;;;;;;11.33;8.33;;;11.30;33.90;;;;;;5050070;28;20196;-67
2020/12/15 07:59:14;;;;;;;7.20;6.60;;;11.20;34.30;;;;;;5049910;28;20202;-67
2020/12/15 08:01:40;;;;;;;7.90;6.10;;;11.10;34.00;;;;;;5050191;28;20456;-67
2020/12/15 08:04:13;;;;;;;9.80;6.50;;;11.10;33.10;;;;;;5049971;28;20925;-66
2020/12/15 08:06:48;;;;;;;8.97;6.77;;;11.10;35.00;;;;;;5049904;28;20448;-68
2020/12/15 08:09:17;;;;;;;7.70;5.80;;;11.20;35.50;;;;;;5049774;28;20402;-65
2020/12/15 08:11:49;;;;;;;7.37;5.83;;;11.20;35.60;;;;;;5050254;28;20407;-68
2020/12/15 08:14:16;;;;;;;6.53;5.93;;;11.20;34.30;;;;;;5049614;28;20418;-69
2020/12/15 08:16:43;;;;;;;6.17;5.67;;;11.10;34.20;;;;;;5051459;28;20457;-67
2020/12/15 08:19:10;;;;;;;6.53;5.53;;;11.10;34.20;;;;;;5052273;28;20406;-70
2020/12/15 08:21:50;;;;;;;8.53;5.67;;;11.20;33.70;;;;;;5054971;28;20406;-68
2020/12/15 08:24:22;;;;;;;7.63;6.93;;;11.00;34.70;;;;;;5053666;28;20441;-69
2020/12/15 08:26:47;;;;;;;7.80;5.87;;;11.20;34.20;;;;;;5053323;28;20410;-68
2020/12/15 08:29:13;;;;;;;6.03;5.53;;;11.20;34.10;;;;;;5053191;28;20419;-67
2020/12/15 08:31:41;;;;;;;8.93;7.23;;;11.20;33.70;;;;;;5053310;28;20172;-66
2020/12/15 08:34:25;;;;;;;6.63;5.93;;;11.20;33.80;;;;;;5053405;28;20438;-65
2020/12/15 08:36:53;;;;;;;6.40;5.50;;;11.00;34.40;;;;;;5053456;28;20548;-68
2020/12/15 08:39:22;;;;;;;7.27;6.00;;;10.90;34.70;;;;;;5052898;28;20407;-66
2020/12/15 08:41:51;;;;;;;7.13;5.87;;;10.90;35.20;;;;;;5049633;28;20406;-66
2020/12/15 08:44:18;;;;;;;7.03;6.37;;;10.90;35.20;;;;;;5052308;28;20434;-66
2020/12/15 08:46:44;;;;;;;9.70;5.13;;;10.90;35.40;;;;;;5052865;28;21082;-66
2020/12/15 08:49:12;;;;;;;7.17;6.50;;;10.90;35.90;;;;;;5052911;28;20410;-68
2020/12/15 08:51:40;;;;;;;5.83;5.43;;;11.00;35.90;;;;;;5052485;28;20407;-67
2020/12/15 08:54:06;;;;;;;13.63;7.73;;;11.20;35.80;;;;;;5052477;28;20461;-66
2020/12/15 08:56:33;;;;;;;8.50;6.70;;;11.00;36.00;;;;;;5051881;28;20476;-66
2020/12/15 08:59:14;;;;;;;6.33;5.73;;;10.90;35.70;;;;;;5051993;28;20407;-65
2020/12/15 09:01:41;;;;;;;10.27;6.27;;;10.90;35.90;;;;;;5052376;28;20497;-67
2020/12/15 09:04:07;;;;;;;6.67;5.90;;;11.00;36.20;;;;;;5052433;28;20929;-66
2020/12/15 09:06:34;;;;;;;6.60;5.37;;;11.10;35.40;;;;;;5052279;28;20479;-66
2020/12/15 09:09:01;;;;;;;6.67;5.83;;;11.20;35.40;;;;;;5052113;28;20497;-66
2020/12/15 09:11:26;;;;;;;8.40;5.87;;;11.30;36.30;;;;;;5052124;28;20929;-64
2020/12/15 09:13:57;;;;;;;7.00;6.40;;;11.40;35.00;;;;;;5052128;28;20472;-68
2020/12/15 09:16:32;;;;;;;8.70;7.80;;;11.40;35.10;;;;;;5052163;28;20196;-66
2020/12/15 09:18:57;;;;;;;6.63;5.93;;;11.50;34.40;;;;;;5052134;28;20853;-67
2020/12/15 09:21:24;;;;;;;6.33;5.83;;;11.50;34.50;;;;;;5052054;28;20494;-65
2020/12/15 09:23:52;;;;;;;7.00;6.40;;;11.60;35.00;;;;;;5051136;28;20244;-69
2020/12/15 09:26:19;;;;;;;13.47;6.03;;;11.60;34.00;;;;;;5051972;28;20430;-70
2020/12/15 09:28:45;;;;;;;7.53;6.70;;;11.70;34.50;;;;;;5051559;28;20402;-68
2020/12/15 09:31:12;;;;;;;7.37;6.70;;;11.60;33.80;;;;;;5052266;28;20783;-69
2020/12/15 09:33:37;;;;;;;6.70;6.10;;;11.60;34.60;;;;;;5052211;28;20438;-67
2020/12/15 09:36:04;;;;;;;7.20;6.00;;;11.60;34.00;;;;;;5052300;28;20736;-68
2020/12/15 09:38:29;;;;;;;6.50;6.00;;;11.70;33.70;;;;;;5051853;28;20236;-68
2020/12/15 09:40:55;;;;;;;5.97;5.37;;;11.80;34.10;;;;;;5052142;28;20449;-67
2020/12/15 09:43:20;;;;;;;7.63;6.60;;;11.80;33.10;;;;;;5052019;28;20534;-68
2020/12/15 09:45:46;;;;;;;7.90;6.87;;;11.70;33.10;;;;;;5051854;28;20221;-68
2020/12/15 09:48:11;;;;;;;9.70;6.97;;;11.80;33.10;;;;;;5051739;28;20553;-66
2020/12/15 09:50:37;;;;;;;10.27;6.80;;;11.80;33.20;;;;;;5051862;28;20187;-68
2020/12/15 09:53:04;;;;;;;8.90;8.10;;;11.50;33.40;;;;;;5051599;28;20184;-69
2020/12/15 09:55:29;;;;;;;18.20;9.83;;;11.70;34.30;;;;;;5051971;28;20180;-67
2020/12/15 09:57:55;;;;;;;10.70;9.33;;;11.70;33.70;;;;;;5051433;28;20860;-69
2020/12/15 10:00:20;;;;;;;10.73;9.83;;;11.60;34.10;;;;;;5051687;28;20176;-68
2020/12/15 10:02:46;;;;;;;9.50;8.70;;;11.60;34.60;;;;;;5051583;28;20198;-67
2020/12/15 10:05:11;;;;;;;10.00;9.10;;;11.60;34.50;;;;;;5051572;28;20250;-68
2020/12/15 10:07:38;;;;;;;10.70;8.40;;;11.60;34.40;;;;;;5050979;28;20178;-67
2020/12/15 10:10:05;;;;;;;9.70;8.70;;;11.60;34.40;;;;;;5053748;28;20172;-68
2020/12/15 10:12:31;;;;;;;13.10;8.77;;;11.60;34.70;;;;;;5051374;28;20445;-69
2020/12/15 10:14:56;;;;;;;10.47;8.07;;;11.70;34.00;;;;;;5051516;28;20490;-69
2020/12/15 10:17:22;;;;;;;19.83;11.10;;;11.70;33.90;;;;;;5051146;28;20206;-68
2020/12/15 10:19:47;;;;;;;12.43;9.27;;;11.70;34.30;;;;;;5051334;28;20176;-67
2020/12/15 10:22:13;;;;;;;10.07;8.57;;;11.60;34.40;;;;;;5051020;28;20192;-67
2020/12/15 10:24:39;;;;;;;9.17;8.27;;;11.70;34.20;;;;;;5051305;28;20191;-67
2020/12/15 10:27:04;;;;;;;17.20;9.87;;;11.70;34.90;;;;;;5051001;28;20199;-68
2020/12/15 10:29:30;;;;;;;8.57;7.70;;;11.80;34.10;;;;;;5050838;28;20262;-68
2020/12/15 10:31:58;;;;;;;8.87;7.63;;;11.90;33.10;;;;;;5050884;28;20529;-67
2020/12/15 10:34:24;;;;;;;10.23;7.73;;;12.00;33.20;;;;;;5050741;28;20172;-68
2020/12/15 10:36:49;;;;;;;8.60;7.80;;;11.90;32.60;;;;;;5050487;28;20511;-69
2020/12/15 10:39:16;;;;;;;7.20;6.50;;;11.90;32.60;;;;;;5050672;28;20180;-67
2020/12/15 10:41:42;;;;;;;7.60;6.87;;;11.90;33.10;;;;;;5050862;28;20172;-68
2020/12/15 10:44:14;;;;;;;7.43;6.80;;;11.90;33.10;;;;;;5050960;28;20425;-69
2020/12/15 10:46:50;;;;;;;10.90;7.77;;;11.80;33.10;;;;;;5049873;28;20624;-68
2020/12/15 10:49:16;;;;;;;14.00;9.97;;;11.60;33.40;;;;;;5050710;28;20417;-69
2020/12/15 10:51:42;;;;;;;8.63;7.87;;;11.50;33.90;;;;;;5050886;28;20986;-69
2020/12/15 10:54:08;;;;;;;11.13;9.83;;;11.60;34.20;;;;;;5050739;28;20468;-68
2020/12/15 10:56:34;;;;;;;12.03;8.97;;;11.60;34.40;;;;;;5050725;28;20406;-67
2020/12/15 10:59:00;;;;;;;8.37;7.57;;;11.70;34.30;;;;;;5050537;28;20425;-67
2020/12/15 11:01:26;;;;;;;15.30;13.73;;;11.60;34.20;;;;;;5050891;28;20184;-68
2020/12/15 11:03:53;;;;;;;24.43;22.03;;;11.60;34.30;;;;;;5050619;28;20460;-68
2020/12/15 11:06:20;;;;;;;10.30;9.30;;;11.70;34.40;;;;;;5050670;28;20441;-68
2020/12/15 11:08:46;;;;;;;7.53;6.83;;;11.60;34.90;;;;;;5050367;28;20423;-67
2020/12/15 11:11:12;;;;;;;7.23;6.17;;;11.50;35.60;;;;;;5050570;28;20422;-67
2020/12/15 11:13:38;;;;;;;7.23;6.60;;;11.60;35.70;;;;;;5050515;28;20207;-67
2020/12/15 11:16:04;;;;;;;7.43;6.60;;;11.50;36.30;;;;;;5050256;28;20179;-69
2020/12/15 11:18:29;;;;;;;6.77;6.17;;;11.40;36.70;;;;;;5049903;28;20450;-69
2020/12/15 11:20:55;;;;;;;8.00;6.40;;;11.40;37.10;;;;;;5050669;28;20231;-68
2020/12/15 11:23:20;;;;;;;7.13;6.53;;;11.40;37.80;;;;;;5050396;28;20215;-69
2020/12/15 11:25:49;;;;;;;8.57;7.60;;;11.50;38.00;;;;;;5050197;28;20190;-69
2020/12/15 11:28:16;;;;;;;7.00;6.10;;;11.60;38.80;;;;;;5050490;28;20177;-69
2020/12/15 11:30:41;;;;;;;11.10;7.47;;;11.80;40.50;;;;;;5050557;28;20414;-69
2020/12/15 11:33:07;;;;;;;7.63;6.90;;;11.80;39.40;;;;;;5050560;28;20422;-69
2020/12/15 11:35:34;;;;;;;7.67;6.40;;;11.80;40.20;;;;;;5050339;28;20176;-69
2020/12/15 11:38:00;;;;;;;8.90;6.93;;;11.70;39.30;;;;;;5050034;28;20196;-69
2020/12/15 11:40:26;;;;;;;10.30;6.77;;;11.60;39.20;;;;;;5050161;28;20497;-69
2020/12/15 11:42:56;;;;;;;7.70;7.10;;;11.60;39.20;;;;;;5050476;28;20425;-69
2020/12/15 11:45:22;;;;;;;7.67;6.97;;;11.60;39.80;;;;;;5050414;28;20899;-69
2020/12/15 11:47:48;;;;;;;7.23;6.50;;;11.80;39.50;;;;;;5050389;28;20418;-69
2020/12/15 11:50:13;;;;;;;9.50;8.00;;;11.90;39.80;;;;;;5050934;28;20464;-67
2020/12/15 11:52:39;;;;;;;6.53;6.03;;;11.90;38.90;;;;;;5054130;28;20192;-67
2020/12/15 11:55:05;;;;;;;7.27;6.57;;;11.90;39.10;;;;;;5054170;28;20681;-68
2020/12/15 11:57:30;;;;;;;11.40;8.07;;;12.00;38.90;;;;;;5053736;28;20235;-69
2020/12/15 11:59:56;;;;;;;9.00;8.20;;;12.00;40.20;;;;;;5053709;28;20569;-66
2020/12/15 12:02:21;;;;;;;10.10;7.93;;;12.10;40.30;;;;;;5053841;28;20192;-68
2020/12/15 12:04:47;;;;;;;9.17;8.30;;;12.20;40.30;;;;;;5053951;28;20513;-68
2020/12/15 12:07:12;;;;;;;10.30;9.30;;;12.40;40.50;;;;;;5053647;28;20176;-68
2020/12/15 12:09:38;;;;;;;12.40;11.10;;;12.40;39.90;;;;;;5053675;28;20203;-67
2020/12/15 12:12:04;;;;;;;11.07;9.43;;;12.40;40.30;;;;;;5053283;28;20172;-67
2020/12/15 12:14:30;;;;;;;17.87;12.33;;;12.50;40.60;;;;;;5053655;28;20179;-69
2020/12/15 12:16:55;;;;;;;13.40;12.13;;;12.60;40.20;;;;;;5053497;28;20465;-67
2020/12/15 12:19:21;;;;;;;12.30;9.43;;;12.60;39.20;;;;;;5053373;28;20239;-65
2020/12/15 12:21:46;;;;;;;13.00;10.93;;;12.60;39.90;;;;;;5053346;28;20178;-67
2020/12/15 12:24:12;;;;;;;12.80;10.87;;;12.70;38.20;;;;;;5053279;28;20274;-69
2020/12/15 12:26:38;;;;;;;14.93;11.50;;;12.70;38.50;;;;;;5053209;28;20180;-68
2020/12/15 12:29:04;;;;;;;10.97;9.90;;;12.70;39.00;;;;;;5053053;28;20172;-67
2020/12/15 12:31:30;;;;;;;15.70;10.87;;;12.70;38.70;;;;;;5053371;28;20464;-69
2020/12/15 12:33:56;;;;;;;10.87;9.87;;;12.60;38.00;;;;;;5053274;28;20835;-69
2020/12/15 12:36:21;;;;;;;12.07;10.80;;;12.70;38.70;;;;;;5053320;28;20175;-68
2020/12/15 12:38:47;;;;;;;13.10;10.30;;;12.60;39.10;;;;;;5052982;28;20203;-69
2020/12/15 12:41:16;;;;;;;12.20;9.90;;;12.70;39.50;;;;;;5053340;28;20243;-68
2020/12/15 12:43:43;;;;;;;11.80;10.70;;;12.70;39.50;;;;;;5053063;28;20242;-69
2020/12/15 12:46:14;;;;;;;14.83;10.03;;;12.70;38.70;;;;;;5053100;28;20421;-69